sensor_id;sensor_type;location;lat;lon;timestamp;temperature;humidity
46730;DHT22;32476;50.002;11.854;2024-02-28T00:00:17;2.00;99.90
46730;DHT22;32476;50.002;11.854;2024-02-28T00:02:44;2.00;99.90
46730;DHT22;32476;50.002;11.854;2024-02-28T00:05:10;2.00;99.90
46730;DHT22;32476;50.002;11.854;2024-02-28T00:07:36;2.00;99.90
46730;DHT22;32476;50.002;11.854;2024-02-28T00:10:04;2.00;99.90
46730;DHT22;32476;50.002;11.854;2024-02-28T00:12:30;1.90;99.90
46730;DHT22;32476;50.002;11.854;2024-02-28T00:14:57;2.00;99.90
46730;DHT22;32476;50.002;11.854;2024-02-28T00:17:24;1.90;99.90
46730;DHT22;32476;50.002;11.854;2024-02-28T00:19:50;2.00;99.90
46730;DHT22;32476;50.002;11.854;2024-02-28T00:22:16;1.90;99.90
46730;DHT22;32476;50.002;11.854;2024-02-28T00:24:43;2.00;99.90
46730;DHT22;32476;50.002;11.854;2024-02-28T00:27:09;2.00;99.90
46730;DHT22;32476;50.002;11.854;2024-02-28T00:29:35;2.00;99.90
46730;DHT22;32476;50.002;11.854;2024-02-28T00:32:04;2.00;99.90
46730;DHT22;32476;50.002;11.854;2024-02-28T00:34:30;2.10;99.90
46730;DHT22;32476;50.002;11.854;2024-02-28T00:36:56;2.00;99.90
46730;DHT22;32476;50.002;11.854;2024-02-28T00:39:23;2.10;99.90
46730;DHT22;32476;50.002;11.854;2024-02-28T00:41:49;2.10;99.90
46730;DHT22;32476;50.002;11.854;2024-02-28T00:44:15;2.00;99.90
46730;DHT22;32476;50.002;11.854;2024-02-28T00:46:42;2.00;99.90
46730;DHT22;32476;50.002;11.854;2024-02-28T00:49:08;1.90;99.90
46730;DHT22;32476;50.002;11.854;2024-02-28T00:51:34;1.90;99.90
46730;DHT22;32476;50.002;11.854;2024-02-28T00:54:04;1.90;99.90
46730;DHT22;32476;50.002;11.854;2024-02-28T00:56:30;1.90;99.90
46730;DHT22;32476;50.002;11.854;2024-02-28T00:58:56;1.90;99.90
46730;DHT22;32476;50.002;11.854;2024-02-28T01:01:23;1.90;99.90
46730;DHT22;32476;50.002;11.854;2024-02-28T01:03:49;1.90;99.90
46730;DHT22;32476;50.002;11.854;2024-02-28T01:06:15;1.90;99.90
46730;DHT22;32476;50.002;11.854;2024-02-28T01:08:43;1.90;99.90
46730;DHT22;32476;50.002;11.854;2024-02-28T01:11:10;1.90;99.90
46730;DHT22;32476;50.002;11.854;2024-02-28T01:13:36;1.90;99.90
46730;DHT22;32476;50.002;11.854;2024-02-28T01:16:04;1.90;99.90
46730;DHT22;32476;50.002;11.854;2024-02-28T01:18:30;2.00;99.90
46730;DHT22;32476;50.002;11.854;2024-02-28T01:20:57;1.90;99.90
46730;DHT22;32476;50.002;11.854;2024-02-28T01:23:25;1.90;99.90
46730;DHT22;32476;50.002;11.854;2024-02-28T01:25:51;1.90;99.90
46730;DHT22;32476;50.002;11.854;2024-02-28T01:28:17;1.90;99.90
46730;DHT22;32476;50.002;11.854;2024-02-28T01:30:44;1.90;99.90
46730;DHT22;32476;50.002;11.854;2024-02-28T01:33:10;1.80;99.90
46730;DHT22;32476;50.002;11.854;2024-02-28T01:35:38;1.90;99.90
46730;DHT22;32476;50.002;11.854;2024-02-28T01:38:06;1.80;99.90
46730;DHT22;32476;50.002;11.854;2024-02-28T01:40:31;1.80;99.90
46730;DHT22;32476;50.002;11.854;2024-02-28T01:43:07;1.80;99.90
46730;DHT22;32476;50.002;11.854;2024-02-28T01:45:35;1.80;99.90
46730;DHT22;32476;50.002;11.854;2024-02-28T01:48:01;1.80;99.90
46730;DHT22;32476;50.002;11.854;2024-02-28T01:50:28;1.80;99.90
46730;DHT22;32476;50.002;11.854;2024-02-28T01:52:56;1.70;99.90
46730;DHT22;32476;50.002;11.854;2024-02-28T01:55:22;1.70;99.90
46730;DHT22;32476;50.002;11.854;2024-02-28T01:57:48;1.70;99.90
46730;DHT22;32476;50.002;11.854;2024-02-28T02:00:16;1.60;99.90
46730;DHT22;32476;50.002;11.854;2024-02-28T02:02:43;1.60;99.90
46730;DHT22;32476;50.002;11.854;2024-02-28T02:05:09;1.60;99.90
46730;DHT22;32476;50.002;11.854;2024-02-28T02:07:37;1.50;99.90
46730;DHT22;32476;50.002;11.854;2024-02-28T02:10:04;1.50;99.90
46730;DHT22;32476;50.002;11.854;2024-02-28T02:12:33;1.50;99.90
46730;DHT22;32476;50.002;11.854;2024-02-28T02:15:01;1.40;99.90
46730;DHT22;32476;50.002;11.854;2024-02-28T02:17:27;1.40;99.90
46730;DHT22;32476;50.002;11.854;2024-02-28T02:19:53;1.40;99.90
46730;DHT22;32476;50.002;11.854;2024-02-28T02:22:21;1.40;99.90
46730;DHT22;32476;50.002;11.854;2024-02-28T02:24:48;1.40;99.90
46730;DHT22;32476;50.002;11.854;2024-02-28T02:27:14;1.40;99.90
46730;DHT22;32476;50.002;11.854;2024-02-28T02:29:42;1.40;99.90
46730;DHT22;32476;50.002;11.854;2024-02-28T02:32:08;1.40;99.90
46730;DHT22;32476;50.002;11.854;2024-02-28T02:34:34;1.40;99.90
46730;DHT22;32476;50.002;11.854;2024-02-28T02:37:02;1.40;99.90
46730;DHT22;32476;50.002;11.854;2024-02-28T02:39:28;1.30;99.90
46730;DHT22;32476;50.002;11.854;2024-02-28T02:41:54;1.40;99.90
46730;DHT22;32476;50.002;11.854;2024-02-28T02:44:21;1.40;99.90
46730;DHT22;32476;50.002;11.854;2024-02-28T02:46:47;1.40;99.90
46730;DHT22;32476;50.002;11.854;2024-02-28T02:49:13;1.40;99.90
46730;DHT22;32476;50.002;11.854;2024-02-28T02:51:41;1.40;99.90
46730;DHT22;32476;50.002;11.854;2024-02-28T02:54:09;1.40;99.90
46730;DHT22;32476;50.002;11.854;2024-02-28T02:56:35;1.40;99.90
46730;DHT22;32476;50.002;11.854;2024-02-28T02:59:02;1.40;99.90
46730;DHT22;32476;50.002;11.854;2024-02-28T03:01:28;1.40;99.90
46730;DHT22;32476;50.002;11.854;2024-02-28T03:03:54;1.50;99.90
46730;DHT22;32476;50.002;11.854;2024-02-28T03:06:21;1.50;99.90
46730;DHT22;32476;50.002;11.854;2024-02-28T03:08:49;1.50;99.90
46730;DHT22;32476;50.002;11.854;2024-02-28T03:11:15;1.50;99.90
46730;DHT22;32476;50.002;11.854;2024-02-28T03:13:43;1.50;99.90
46730;DHT22;32476;50.002;11.854;2024-02-28T03:16:09;1.50;99.90
46730;DHT22;32476;50.002;11.854;2024-02-28T03:18:35;1.50;99.90
46730;DHT22;32476;50.002;11.854;2024-02-28T03:21:02;1.60;99.90
46730;DHT22;32476;50.002;11.854;2024-02-28T03:23:29;1.60;99.90
46730;DHT22;32476;50.002;11.854;2024-02-28T03:25:55;1.60;99.90
46730;DHT22;32476;50.002;11.854;2024-02-28T03:28:22;1.60;99.90
46730;DHT22;32476;50.002;11.854;2024-02-28T03:30:48;1.60;99.90
46730;DHT22;32476;50.002;11.854;2024-02-28T03:33:14;1.60;99.90
46730;DHT22;32476;50.002;11.854;2024-02-28T03:35:41;1.60;99.90
46730;DHT22;32476;50.002;11.854;2024-02-28T03:38:07;1.60;99.90
46730;DHT22;32476;50.002;11.854;2024-02-28T03:40:33;1.60;99.90
46730;DHT22;32476;50.002;11.854;2024-02-28T03:43:01;1.60;99.90
46730;DHT22;32476;50.002;11.854;2024-02-28T03:45:30;1.60;99.90
46730;DHT22;32476;50.002;11.854;2024-02-28T03:47:56;1.60;99.90
46730;DHT22;32476;50.002;11.854;2024-02-28T03:50:23;1.70;99.90
46730;DHT22;32476;50.002;11.854;2024-02-28T03:52:49;1.70;99.90
46730;DHT22;32476;50.002;11.854;2024-02-28T03:55:16;1.70;99.90
46730;DHT22;32476;50.002;11.854;2024-02-28T03:57:47;1.70;99.90
46730;DHT22;32476;50.002;11.854;2024-02-28T04:00:14;1.70;99.90
46730;DHT22;32476;50.002;11.854;2024-02-28T04:02:40;1.70;99.90
46730;DHT22;32476;50.002;11.854;2024-02-28T04:05:07;1.70;99.90
46730;DHT22;32476;50.002;11.854;2024-02-28T04:07:34;1.70;99.90
46730;DHT22;32476;50.002;11.854;2024-02-28T04:10:00;1.60;99.90
46730;DHT22;32476;50.002;11.854;2024-02-28T04:12:27;1.60;99.90
46730;DHT22;32476;50.002;11.854;2024-02-28T04:14:53;1.70;99.90
46730;DHT22;32476;50.002;11.854;2024-02-28T04:17:19;1.60;99.90
46730;DHT22;32476;50.002;11.854;2024-02-28T04:19:47;1.60;99.90
46730;DHT22;32476;50.002;11.854;2024-02-28T04:22:13;1.60;99.90
46730;DHT22;32476;50.002;11.854;2024-02-28T04:24:38;1.60;99.90
46730;DHT22;32476;50.002;11.854;2024-02-28T04:27:06;1.60;99.90
46730;DHT22;32476;50.002;11.854;2024-02-28T04:29:35;1.60;99.90
46730;DHT22;32476;50.002;11.854;2024-02-28T04:32:01;1.60;99.90
46730;DHT22;32476;50.002;11.854;2024-02-28T04:34:28;1.60;99.90
46730;DHT22;32476;50.002;11.854;2024-02-28T04:36:54;1.70;99.90
46730;DHT22;32476;50.002;11.854;2024-02-28T04:39:20;1.70;99.90
46730;DHT22;32476;50.002;11.854;2024-02-28T04:41:48;1.70;99.90
46730;DHT22;32476;50.002;11.854;2024-02-28T04:44:14;1.70;99.90
46730;DHT22;32476;50.002;11.854;2024-02-28T04:46:40;1.70;99.90
46730;DHT22;32476;50.002;11.854;2024-02-28T04:49:07;1.80;99.90
46730;DHT22;32476;50.002;11.854;2024-02-28T04:51:34;1.80;99.90
46730;DHT22;32476;50.002;11.854;2024-02-28T04:54:00;1.80;99.90
46730;DHT22;32476;50.002;11.854;2024-02-28T04:56:28;1.80;99.90
46730;DHT22;32476;50.002;11.854;2024-02-28T04:58:54;1.80;99.90
46730;DHT22;32476;50.002;11.854;2024-02-28T05:01:19;1.80;99.90
46730;DHT22;32476;50.002;11.854;2024-02-28T05:03:47;1.80;99.90
46730;DHT22;32476;50.002;11.854;2024-02-28T05:06:13;1.80;99.90
46730;DHT22;32476;50.002;11.854;2024-02-28T05:08:39;1.90;99.90
46730;DHT22;32476;50.002;11.854;2024-02-28T05:11:06;1.90;99.90
46730;DHT22;32476;50.002;11.854;2024-02-28T05:13:33;1.90;99.90
46730;DHT22;32476;50.002;11.854;2024-02-28T05:16:00;1.90;99.90
46730;DHT22;32476;50.002;11.854;2024-02-28T05:18:28;1.90;99.90
46730;DHT22;32476;50.002;11.854;2024-02-28T05:20:54;1.90;99.90
46730;DHT22;32476;50.002;11.854;2024-02-28T05:23:20;1.90;99.90
46730;DHT22;32476;50.002;11.854;2024-02-28T05:25:48;1.90;99.90
46730;DHT22;32476;50.002;11.854;2024-02-28T05:28:14;1.90;99.90
46730;DHT22;32476;50.002;11.854;2024-02-28T05:30:40;1.90;99.90
46730;DHT22;32476;50.002;11.854;2024-02-28T05:33:08;1.90;99.90
46730;DHT22;32476;50.002;11.854;2024-02-28T05:35:34;2.00;99.90
46730;DHT22;32476;50.002;11.854;2024-02-28T05:38:00;2.00;99.90
46730;DHT22;32476;50.002;11.854;2024-02-28T05:40:27;2.00;99.90
46730;DHT22;32476;50.002;11.854;2024-02-28T05:42:53;2.00;99.90
46730;DHT22;32476;50.002;11.854;2024-02-28T05:45:19;2.00;99.90
46730;DHT22;32476;50.002;11.854;2024-02-28T05:47:47;2.00;99.90
46730;DHT22;32476;50.002;11.854;2024-02-28T05:50:13;2.00;99.90
46730;DHT22;32476;50.002;11.854;2024-02-28T05:52:42;1.90;99.90
46730;DHT22;32476;50.002;11.854;2024-02-28T05:55:09;1.90;99.90
46730;DHT22;32476;50.002;11.854;2024-02-28T05:57:36;1.90;99.90
46730;DHT22;32476;50.002;11.854;2024-02-28T06:00:02;1.90;99.90
46730;DHT22;32476;50.002;11.854;2024-02-28T06:02:37;1.90;99.90
46730;DHT22;32476;50.002;11.854;2024-02-28T06:05:03;1.90;99.90
46730;DHT22;32476;50.002;11.854;2024-02-28T06:07:30;1.90;99.90
46730;DHT22;32476;50.002;11.854;2024-02-28T06:09:58;1.90;99.90
46730;DHT22;32476;50.002;11.854;2024-02-28T06:12:23;2.00;99.90
46730;DHT22;32476;50.002;11.854;2024-02-28T06:14:49;2.00;99.90
46730;DHT22;32476;50.002;11.854;2024-02-28T06:17:17;2.00;99.90
46730;DHT22;32476;50.002;11.854;2024-02-28T06:19:43;2.00;99.90
46730;DHT22;32476;50.002;11.854;2024-02-28T06:22:09;2.00;99.90
46730;DHT22;32476;50.002;11.854;2024-02-28T06:24:36;2.00;99.90
46730;DHT22;32476;50.002;11.854;2024-02-28T06:27:02;2.00;99.90
46730;DHT22;32476;50.002;11.854;2024-02-28T06:29:29;1.90;99.90
46730;DHT22;32476;50.002;11.854;2024-02-28T06:31:57;2.00;99.90
46730;DHT22;32476;50.002;11.854;2024-02-28T06:34:23;2.00;99.90
46730;DHT22;32476;50.002;11.854;2024-02-28T06:36:50;2.00;99.90
46730;DHT22;32476;50.002;11.854;2024-02-28T06:39:17;2.10;99.90
46730;DHT22;32476;50.002;11.854;2024-02-28T06:41:43;2.10;99.90
46730;DHT22;32476;50.002;11.854;2024-02-28T06:44:09;2.20;99.90
46730;DHT22;32476;50.002;11.854;2024-02-28T06:46:38;2.20;99.90
46730;DHT22;32476;50.002;11.854;2024-02-28T06:49:04;2.30;99.90
46730;DHT22;32476;50.002;11.854;2024-02-28T06:51:30;2.40;99.90
46730;DHT22;32476;50.002;11.854;2024-02-28T06:53:57;2.50;99.90
46730;DHT22;32476;50.002;11.854;2024-02-28T06:56:23;2.60;99.90
46730;DHT22;32476;50.002;11.854;2024-02-28T06:58:49;2.60;99.90
46730;DHT22;32476;50.002;11.854;2024-02-28T07:01:17;2.60;99.90
46730;DHT22;32476;50.002;11.854;2024-02-28T07:03:44;2.70;99.90
46730;DHT22;32476;50.002;11.854;2024-02-28T07:06:11;2.70;99.90
46730;DHT22;32476;50.002;11.854;2024-02-28T07:08:38;2.70;99.90
46730;DHT22;32476;50.002;11.854;2024-02-28T07:11:04;2.80;99.90
46730;DHT22;32476;50.002;11.854;2024-02-28T07:13:30;2.80;99.90
46730;DHT22;32476;50.002;11.854;2024-02-28T07:15:58;2.80;99.90
46730;DHT22;32476;50.002;11.854;2024-02-28T07:18:24;2.90;99.90
46730;DHT22;32476;50.002;11.854;2024-02-28T07:20:55;2.90;99.90
46730;DHT22;32476;50.002;11.854;2024-02-28T07:23:22;2.90;99.90
46730;DHT22;32476;50.002;11.854;2024-02-28T07:25:48;2.90;99.90
46730;DHT22;32476;50.002;11.854;2024-02-28T07:28:14;2.90;99.90
46730;DHT22;32476;50.002;11.854;2024-02-28T07:30:41;2.80;99.90
46730;DHT22;32476;50.002;11.854;2024-02-28T07:33:09;2.80;99.90
46730;DHT22;32476;50.002;11.854;2024-02-28T07:35:48;2.90;99.90
46730;DHT22;32476;50.002;11.854;2024-02-28T07:38:16;2.80;99.90
46730;DHT22;32476;50.002;11.854;2024-02-28T07:40:43;2.80;99.90
46730;DHT22;32476;50.002;11.854;2024-02-28T07:43:09;2.90;99.90
46730;DHT22;32476;50.002;11.854;2024-02-28T07:45:37;2.90;99.90
46730;DHT22;32476;50.002;11.854;2024-02-28T07:48:04;3.00;99.90
46730;DHT22;32476;50.002;11.854;2024-02-28T07:50:30;3.10;99.90
46730;DHT22;32476;50.002;11.854;2024-02-28T07:52:56;3.00;99.90
46730;DHT22;32476;50.002;11.854;2024-02-28T07:55:23;3.20;99.90
46730;DHT22;32476;50.002;11.854;2024-02-28T07:57:56;3.30;99.90
46730;DHT22;32476;50.002;11.854;2024-02-28T08:00:23;3.30;99.90
46730;DHT22;32476;50.002;11.854;2024-02-28T08:02:50;3.40;99.90
46730;DHT22;32476;50.002;11.854;2024-02-28T08:05:16;3.40;99.90
46730;DHT22;32476;50.002;11.854;2024-02-28T08:07:45;3.40;99.90
46730;DHT22;32476;50.002;11.854;2024-02-28T08:10:11;3.50;99.90
46730;DHT22;32476;50.002;11.854;2024-02-28T08:12:37;3.60;99.90
46730;DHT22;32476;50.002;11.854;2024-02-28T08:15:05;3.60;99.90
46730;DHT22;32476;50.002;11.854;2024-02-28T08:17:31;3.60;99.90
46730;DHT22;32476;50.002;11.854;2024-02-28T08:19:57;3.60;99.90
46730;DHT22;32476;50.002;11.854;2024-02-28T08:22:24;3.70;99.90
46730;DHT22;32476;50.002;11.854;2024-02-28T08:24:53;3.70;99.90
46730;DHT22;32476;50.002;11.854;2024-02-28T08:27:19;3.70;99.90
46730;DHT22;32476;50.002;11.854;2024-02-28T08:29:47;3.70;99.90
46730;DHT22;32476;50.002;11.854;2024-02-28T08:32:13;3.60;99.90
46730;DHT22;32476;50.002;11.854;2024-02-28T08:34:43;3.60;99.90
46730;DHT22;32476;50.002;11.854;2024-02-28T08:37:14;3.60;99.90
46730;DHT22;32476;50.002;11.854;2024-02-28T08:39:40;3.60;99.90
46730;DHT22;32476;50.002;11.854;2024-02-28T08:42:06;3.60;99.90
46730;DHT22;32476;50.002;11.854;2024-02-28T08:44:33;3.70;99.90
46730;DHT22;32476;50.002;11.854;2024-02-28T08:46:59;3.70;99.90
46730;DHT22;32476;50.002;11.854;2024-02-28T08:49:25;3.70;99.90
46730;DHT22;32476;50.002;11.854;2024-02-28T08:51:53;3.70;99.90
46730;DHT22;32476;50.002;11.854;2024-02-28T08:54:19;3.60;99.90
46730;DHT22;32476;50.002;11.854;2024-02-28T08:56:45;3.70;99.90
46730;DHT22;32476;50.002;11.854;2024-02-28T08:59:13;3.70;99.90
46730;DHT22;32476;50.002;11.854;2024-02-28T09:01:38;3.70;99.90
46730;DHT22;32476;50.002;11.854;2024-02-28T09:04:07;3.70;99.90
46730;DHT22;32476;50.002;11.854;2024-02-28T09:06:34;3.80;99.90
46730;DHT22;32476;50.002;11.854;2024-02-28T09:09:00;3.80;99.90
46730;DHT22;32476;50.002;11.854;2024-02-28T09:11:26;3.80;99.90
46730;DHT22;32476;50.002;11.854;2024-02-28T09:13:53;3.70;99.90
46730;DHT22;32476;50.002;11.854;2024-02-28T09:16:21;3.80;99.90
46730;DHT22;32476;50.002;11.854;2024-02-28T09:18:47;3.90;99.90
46730;DHT22;32476;50.002;11.854;2024-02-28T09:21:14;3.90;99.90
46730;DHT22;32476;50.002;11.854;2024-02-28T09:23:41;4.10;99.90
46730;DHT22;32476;50.002;11.854;2024-02-28T09:26:07;4.10;99.90
46730;DHT22;32476;50.002;11.854;2024-02-28T09:28:34;4.20;99.90
46730;DHT22;32476;50.002;11.854;2024-02-28T09:31:00;4.40;99.90
46730;DHT22;32476;50.002;11.854;2024-02-28T09:33:26;4.40;99.90
46730;DHT22;32476;50.002;11.854;2024-02-28T09:35:54;4.50;99.90
46730;DHT22;32476;50.002;11.854;2024-02-28T09:38:19;4.60;99.90
46730;DHT22;32476;50.002;11.854;2024-02-28T09:40:46;4.60;99.90
46730;DHT22;32476;50.002;11.854;2024-02-28T09:43:28;4.30;99.90
46730;DHT22;32476;50.002;11.854;2024-02-28T09:45:59;4.50;99.90
46730;DHT22;32476;50.002;11.854;2024-02-28T09:48:28;4.30;99.90
46730;DHT22;32476;50.002;11.854;2024-02-28T09:50:59;4.10;99.90
46730;DHT22;32476;50.002;11.854;2024-02-28T09:53:26;4.10;99.90
46730;DHT22;32476;50.002;11.854;2024-02-28T09:55:54;4.20;99.90
46730;DHT22;32476;50.002;11.854;2024-02-28T09:58:20;4.00;99.90
46730;DHT22;32476;50.002;11.854;2024-02-28T10:00:47;4.00;99.90
46730;DHT22;32476;50.002;11.854;2024-02-28T10:03:18;4.00;99.90
46730;DHT22;32476;50.002;11.854;2024-02-28T10:05:46;4.10;99.90
46730;DHT22;32476;50.002;11.854;2024-02-28T10:08:12;4.10;99.90
46730;DHT22;32476;50.002;11.854;2024-02-28T10:10:50;4.30;99.90
46730;DHT22;32476;50.002;11.854;2024-02-28T10:13:21;4.60;99.90
46730;DHT22;32476;50.002;11.854;2024-02-28T10:15:49;4.80;99.90
46730;DHT22;32476;50.002;11.854;2024-02-28T10:18:15;4.60;99.90
46730;DHT22;32476;50.002;11.854;2024-02-28T10:20:42;4.50;99.90
46730;DHT22;32476;50.002;11.854;2024-02-28T10:23:10;4.60;99.90
46730;DHT22;32476;50.002;11.854;2024-02-28T10:25:46;4.50;99.90
46730;DHT22;32476;50.002;11.854;2024-02-28T10:28:14;4.60;99.90
46730;DHT22;32476;50.002;11.854;2024-02-28T10:30:41;4.60;99.90
46730;DHT22;32476;50.002;11.854;2024-02-28T10:33:14;4.50;99.90
46730;DHT22;32476;50.002;11.854;2024-02-28T10:35:42;4.50;99.90
46730;DHT22;32476;50.002;11.854;2024-02-28T10:38:11;4.60;99.90
46730;DHT22;32476;50.002;11.854;2024-02-28T10:40:40;4.60;99.90
46730;DHT22;32476;50.002;11.854;2024-02-28T10:43:08;4.40;99.90
46730;DHT22;32476;50.002;11.854;2024-02-28T10:45:39;4.40;99.90
46730;DHT22;32476;50.002;11.854;2024-02-28T10:48:05;4.40;99.90
46730;DHT22;32476;50.002;11.854;2024-02-28T10:50:34;4.40;99.90
46730;DHT22;32476;50.002;11.854;2024-02-28T10:53:03;4.30;99.90
46730;DHT22;32476;50.002;11.854;2024-02-28T10:55:33;4.40;99.90
46730;DHT22;32476;50.002;11.854;2024-02-28T10:58:08;4.30;99.90
46730;DHT22;32476;50.002;11.854;2024-02-28T11:00:39;4.40;99.90
46730;DHT22;32476;50.002;11.854;2024-02-28T11:03:10;4.60;99.90
46730;DHT22;32476;50.002;11.854;2024-02-28T11:05:37;4.80;99.90
46730;DHT22;32476;50.002;11.854;2024-02-28T11:08:10;4.90;99.90
46730;DHT22;32476;50.002;11.854;2024-02-28T11:10:41;5.40;99.90
46730;DHT22;32476;50.002;11.854;2024-02-28T11:13:23;5.30;99.90
46730;DHT22;32476;50.002;11.854;2024-02-28T11:15:52;5.20;99.90
46730;DHT22;32476;50.002;11.854;2024-02-28T11:18:19;5.20;99.90
46730;DHT22;32476;50.002;11.854;2024-02-28T11:20:45;5.40;99.90
46730;DHT22;32476;50.002;11.854;2024-02-28T11:23:17;5.50;99.90
46730;DHT22;32476;50.002;11.854;2024-02-28T11:25:43;5.80;99.90
46730;DHT22;32476;50.002;11.854;2024-02-28T11:28:09;6.00;99.90
46730;DHT22;32476;50.002;11.854;2024-02-28T11:30:37;6.00;99.90
46730;DHT22;32476;50.002;11.854;2024-02-28T11:33:03;6.10;99.90
46730;DHT22;32476;50.002;11.854;2024-02-28T11:35:29;6.00;99.90
46730;DHT22;32476;50.002;11.854;2024-02-28T11:37:56;5.70;99.90
46730;DHT22;32476;50.002;11.854;2024-02-28T11:40:26;5.40;99.90
46730;DHT22;32476;50.002;11.854;2024-02-28T11:42:54;5.50;99.90
46730;DHT22;32476;50.002;11.854;2024-02-28T11:45:22;5.70;99.90
46730;DHT22;32476;50.002;11.854;2024-02-28T11:47:48;5.60;99.90
46730;DHT22;32476;50.002;11.854;2024-02-28T11:50:14;5.90;99.90
46730;DHT22;32476;50.002;11.854;2024-02-28T11:52:47;6.20;99.90
46730;DHT22;32476;50.002;11.854;2024-02-28T11:55:13;7.00;99.90
46730;DHT22;32476;50.002;11.854;2024-02-28T11:57:39;7.00;99.90
46730;DHT22;32476;50.002;11.854;2024-02-28T12:00:08;6.90;99.90
46730;DHT22;32476;50.002;11.854;2024-02-28T12:02:34;6.90;99.90
46730;DHT22;32476;50.002;11.854;2024-02-28T12:05:02;6.80;99.90
46730;DHT22;32476;50.002;11.854;2024-02-28T12:07:32;7.50;99.90
46730;DHT22;32476;50.002;11.854;2024-02-28T12:09:59;7.10;99.90
46730;DHT22;32476;50.002;11.854;2024-02-28T12:12:27;7.20;99.90
46730;DHT22;32476;50.002;11.854;2024-02-28T12:14:59;7.80;99.90
46730;DHT22;32476;50.002;11.854;2024-02-28T12:17:31;8.40;99.90
46730;DHT22;32476;50.002;11.854;2024-02-28T12:19:59;7.80;99.90
46730;DHT22;32476;50.002;11.854;2024-02-28T12:22:26;7.60;99.90
46730;DHT22;32476;50.002;11.854;2024-02-28T12:24:52;7.90;99.90
46730;DHT22;32476;50.002;11.854;2024-02-28T12:27:20;7.90;99.90
46730;DHT22;32476;50.002;11.854;2024-02-28T12:29:46;8.30;99.90
46730;DHT22;32476;50.002;11.854;2024-02-28T12:32:12;8.40;99.90
46730;DHT22;32476;50.002;11.854;2024-02-28T12:34:40;8.90;99.90
46730;DHT22;32476;50.002;11.854;2024-02-28T12:37:06;8.90;99.90
46730;DHT22;32476;50.002;11.854;2024-02-28T12:39:32;8.70;99.90
46730;DHT22;32476;50.002;11.854;2024-02-28T12:42:02;8.40;99.90
46730;DHT22;32476;50.002;11.854;2024-02-28T12:44:28;8.60;99.90
46730;DHT22;32476;50.002;11.854;2024-02-28T12:46:54;8.80;98.10
46730;DHT22;32476;50.002;11.854;2024-02-28T12:49:21;8.70;98.40
46730;DHT22;32476;50.002;11.854;2024-02-28T12:51:47;9.10;97.30
46730;DHT22;32476;50.002;11.854;2024-02-28T12:54:14;8.90;97.30
46730;DHT22;32476;50.002;11.854;2024-02-28T12:56:42;8.60;95.40
46730;DHT22;32476;50.002;11.854;2024-02-28T12:59:10;8.70;97.50
46730;DHT22;32476;50.002;11.854;2024-02-28T13:01:36;8.70;99.90
46730;DHT22;32476;50.002;11.854;2024-02-28T13:04:04;8.90;99.40
46730;DHT22;32476;50.002;11.854;2024-02-28T13:06:30;8.60;98.40
46730;DHT22;32476;50.002;11.854;2024-02-28T13:08:56;8.70;97.30
46730;DHT22;32476;50.002;11.854;2024-02-28T13:11:24;9.10;98.20
46730;DHT22;32476;50.002;11.854;2024-02-28T13:13:52;9.00;98.70
46730;DHT22;32476;50.002;11.854;2024-02-28T13:16:19;9.00;98.80
46730;DHT22;32476;50.002;11.854;2024-02-28T13:18:47;8.90;99.50
46730;DHT22;32476;50.002;11.854;2024-02-28T13:21:13;9.20;97.40
46730;DHT22;32476;50.002;11.854;2024-02-28T13:23:39;9.50;99.90
46730;DHT22;32476;50.002;11.854;2024-02-28T13:26:07;9.80;97.00
46730;DHT22;32476;50.002;11.854;2024-02-28T13:28:33;9.60;96.40
46730;DHT22;32476;50.002;11.854;2024-02-28T13:31:01;9.60;97.50
46730;DHT22;32476;50.002;11.854;2024-02-28T13:33:29;9.50;97.90
46730;DHT22;32476;50.002;11.854;2024-02-28T13:35:55;10.20;99.90
46730;DHT22;32476;50.002;11.854;2024-02-28T13:38:21;10.10;99.10
46730;DHT22;32476;50.002;11.854;2024-02-28T13:40:49;10.60;99.90
46730;DHT22;32476;50.002;11.854;2024-02-28T13:43:17;10.70;99.10
46730;DHT22;32476;50.002;11.854;2024-02-28T13:45:49;9.90;95.60
46730;DHT22;32476;50.002;11.854;2024-02-28T13:48:20;9.80;98.10
46730;DHT22;32476;50.002;11.854;2024-02-28T13:50:48;9.40;95.10
46730;DHT22;32476;50.002;11.854;2024-02-28T13:53:15;8.90;94.30
46730;DHT22;32476;50.002;11.854;2024-02-28T13:55:43;9.30;95.00
46730;DHT22;32476;50.002;11.854;2024-02-28T13:58:11;9.30;94.90
46730;DHT22;32476;50.002;11.854;2024-02-28T14:00:38;8.90;94.90
46730;DHT22;32476;50.002;11.854;2024-02-28T14:03:06;9.00;98.00
46730;DHT22;32476;50.002;11.854;2024-02-28T14:05:32;9.40;94.90
46730;DHT22;32476;50.002;11.854;2024-02-28T14:07:58;9.00;93.40
46730;DHT22;32476;50.002;11.854;2024-02-28T14:10:26;9.60;96.70
46730;DHT22;32476;50.002;11.854;2024-02-28T14:12:52;9.90;94.80
46730;DHT22;32476;50.002;11.854;2024-02-28T14:15:22;9.40;91.30
46730;DHT22;32476;50.002;11.854;2024-02-28T14:17:49;9.40;91.90
46730;DHT22;32476;50.002;11.854;2024-02-28T14:20:17;9.50;93.10
46730;DHT22;32476;50.002;11.854;2024-02-28T14:22:43;10.10;94.10
46730;DHT22;32476;50.002;11.854;2024-02-28T14:25:12;10.30;93.70
46730;DHT22;32476;50.002;11.854;2024-02-28T14:27:41;10.20;93.20
46730;DHT22;32476;50.002;11.854;2024-02-28T14:30:08;10.40;96.50
46730;DHT22;32476;50.002;11.854;2024-02-28T14:32:38;10.90;95.60
46730;DHT22;32476;50.002;11.854;2024-02-28T14:35:05;9.90;88.50
46730;DHT22;32476;50.002;11.854;2024-02-28T14:37:34;9.60;91.90
46730;DHT22;32476;50.002;11.854;2024-02-28T14:40:03;10.00;96.40
46730;DHT22;32476;50.002;11.854;2024-02-28T14:42:32;9.60;92.80
46730;DHT22;32476;50.002;11.854;2024-02-28T14:44:59;9.30;94.80
46730;DHT22;32476;50.002;11.854;2024-02-28T14:47:26;9.20;91.80
46730;DHT22;32476;50.002;11.854;2024-02-28T14:49:52;9.10;92.60
46730;DHT22;32476;50.002;11.854;2024-02-28T14:52:18;9.30;94.40
46730;DHT22;32476;50.002;11.854;2024-02-28T14:54:46;9.40;95.50
46730;DHT22;32476;50.002;11.854;2024-02-28T14:57:12;9.50;94.80
46730;DHT22;32476;50.002;11.854;2024-02-28T14:59:40;9.50;94.70
46730;DHT22;32476;50.002;11.854;2024-02-28T15:02:09;9.40;95.40
46730;DHT22;32476;50.002;11.854;2024-02-28T15:04:37;9.20;92.30
46730;DHT22;32476;50.002;11.854;2024-02-28T15:07:04;9.40;94.30
46730;DHT22;32476;50.002;11.854;2024-02-28T15:09:32;9.40;94.20
46730;DHT22;32476;50.002;11.854;2024-02-28T15:11:59;9.10;95.60
46730;DHT22;32476;50.002;11.854;2024-02-28T15:14:25;9.20;97.70
46730;DHT22;32476;50.002;11.854;2024-02-28T15:16:53;9.30;96.60
46730;DHT22;32476;50.002;11.854;2024-02-28T15:19:22;9.30;99.30
46730;DHT22;32476;50.002;11.854;2024-02-28T15:21:48;9.30;98.10
46730;DHT22;32476;50.002;11.854;2024-02-28T15:24:15;9.40;99.30
46730;DHT22;32476;50.002;11.854;2024-02-28T15:26:42;9.60;98.60
46730;DHT22;32476;50.002;11.854;2024-02-28T15:29:09;9.40;97.00